Cazenovia, New York
Current Conditions -  °F | °C
As of 7:54 AM on Sunday 23 Nov 2014 (Local Time) from KSYR Reporting Station
Overcast Overcast  
Wind Chill: 50°   Ceiling: 3400
Heat Index: 50°   Visibility: 10mi
Dew Point: 39°   Wind: 9mph
Humidity: 66%   Direction: 200°SSW
Pressure: 30.06"   Gusts: NA
Location:  42.93°N, 75.85°W
Report Text: KSYR 231254Z 20008KT 10SM OVC034 10/04 A3006 RMK AO2 SLP177 T01000039 $
Loading
Personal Weather Stations






























Interactive Weather Map New forecast layout! Learn more

10-Day Weather Forecast

Advertisements
Track Severe Weather on mobile